Time;durP1;ratioP1;P1;durP2;ratioP2;P2;SDS_P1;SDS_P2;PMS_P1;PMS_P2;Temp;Humidity;BMP_temperature;BMP_pressure;BME280_temperature;BME280_humidity;BME280_pressure;Samples;Min_cycle;Max_cycle;Signal;HPM_P1;HPM_P2
2023/04/22 00:01:38;;;;;;;6.38;5.78;;;17.60;63.50;;;;;;4178394;28;20048;-60
2023/04/22 00:04:19;;;;;;;6.80;5.55;;;17.60;63.70;;;;;;4178244;28;20060;-59
2023/04/22 00:07:01;;;;;;;6.85;5.60;;;17.60;63.90;;;;;;4177988;28;20060;-59
2023/04/22 00:09:42;;;;;;;7.75;5.22;;;17.60;64.10;;;;;;4178706;28;20499;-59
2023/04/22 00:12:24;;;;;;;5.05;4.65;;;17.60;64.20;;;;;;4183638;28;20394;-60
2023/04/22 00:15:05;;;;;;;7.13;5.60;;;17.60;64.40;;;;;;4193503;28;20444;-59
2023/04/22 00:17:47;;;;;;;8.18;5.43;;;17.60;64.40;;;;;;4193592;28;20064;-60
2023/04/22 00:20:28;;;;;;;7.18;5.82;;;17.60;64.60;;;;;;4194430;28;20137;-60
2023/04/22 00:23:10;;;;;;;5.97;5.50;;;17.60;64.70;;;;;;4194135;28;20079;-60
2023/04/22 00:25:51;;;;;;;;;;;17.60;64.70;;;;;;4194713;28;20125;-60
2023/04/22 00:28:31;;;;;;;6.20;5.70;;;17.60;64.70;;;;;;4194192;28;20057;-60
2023/04/22 00:31:12;;;;;;;6.18;5.65;;;17.50;65.60;;;;;;4194131;28;20047;-60
2023/04/22 00:33:55;;;;;;;;;;;17.50;64.90;;;;;;4193236;28;20052;-60
2023/04/22 00:36:36;;;;;;;6.30;5.63;;;17.50;65.00;;;;;;4194328;28;19943;-60
2023/04/22 00:39:17;;;;;;;6.65;5.95;;;17.50;65.00;;;;;;4194166;28;20110;-59
2023/04/22 00:42:00;;;;;;;6.28;5.68;;;17.50;65.20;;;;;;4187718;28;20055;-60
2023/04/22 00:44:42;;;;;;;5.72;5.20;;;17.50;65.30;;;;;;4177442;28;20052;-59
2023/04/22 00:47:25;;;;;;;5.93;5.43;;;17.50;65.50;;;;;;4175911;28;20055;-60
2023/04/22 00:50:09;;;;;;;6.65;5.75;;;17.50;65.60;;;;;;4176182;28;20195;-60
2023/04/22 00:52:50;;;;;;;6.40;5.22;;;17.50;65.70;;;;;;4176281;28;20052;-60
2023/04/22 00:55:31;;;;;;;7.90;5.60;;;17.50;65.80;;;;;;4177322;28;20510;-60
2023/04/22 00:58:12;;;;;;;8.25;5.70;;;17.50;65.90;;;;;;4189809;28;20494;-60
2023/04/22 01:00:53;;;;;;;6.50;5.47;;;17.50;65.90;;;;;;4190793;28;20174;-60
2023/04/22 01:03:37;;;;;;;7.45;5.70;;;17.50;65.90;;;;;;4194312;28;20047;-60
2023/04/22 01:06:20;;;;;;;6.40;5.68;;;17.50;66.00;;;;;;4193057;28;20067;-59
2023/04/22 01:09:02;;;;;;;6.15;5.60;;;17.50;66.00;;;;;;4193879;28;20116;-60
2023/04/22 01:11:43;;;;;;;6.07;5.47;;;17.50;66.10;;;;;;4193093;28;20059;-60
2023/04/22 01:14:24;;;;;;;6.30;5.68;;;17.50;66.20;;;;;;4193621;28;20514;-60
2023/04/22 01:17:05;;;;;;;6.63;5.88;;;17.50;66.30;;;;;;4192664;28;20154;-60
2023/04/22 01:19:46;;;;;;;6.40;5.82;;;17.50;66.30;;;;;;4192530;28;20183;-61
2023/04/22 01:22:35;;;;;;;7.22;5.47;;;17.50;66.40;;;;;;4193853;28;20050;-60
2023/04/22 01:25:17;;;;;;;5.60;5.15;;;17.50;66.50;;;;;;4193724;28;20051;-60
2023/04/22 01:27:59;;;;;;;6.60;5.35;;;17.40;66.50;;;;;;4193486;28;20118;-60
2023/04/22 01:30:41;;;;;;;7.18;5.85;;;17.40;66.60;;;;;;4184555;28;20059;-60
2023/04/22 01:33:22;;;;;;;6.57;5.97;;;17.50;66.70;;;;;;4193765;28;20101;-60
2023/04/22 01:36:03;;;;;;;6.93;5.88;;;17.40;66.60;;;;;;4193686;28;20043;-60
2023/04/22 01:38:44;;;;;;;8.73;6.00;;;17.40;66.70;;;;;;4193747;28;20060;-60
2023/04/22 01:41:26;;;;;;;6.43;5.82;;;17.40;66.80;;;;;;4193060;28;20055;-60
2023/04/22 01:44:07;;;;;;;6.63;5.95;;;17.40;66.80;;;;;;4192178;28;20051;-60
2023/04/22 01:46:48;;;;;;;6.63;6.00;;;17.40;66.80;;;;;;4180622;28;20525;-60
2023/04/22 01:49:28;;;;;;;6.57;5.37;;;17.40;66.90;;;;;;4193145;28;20059;-60
2023/04/22 01:52:09;;;;;;;6.93;5.97;;;17.40;67.10;;;;;;4192874;28;20764;-60
2023/04/22 01:54:51;;;;;;;6.93;6.13;;;17.40;67.90;;;;;;4191922;28;20302;-59
2023/04/22 01:57:33;;;;;;;;;;;17.40;67.00;;;;;;4192538;28;20129;-59
2023/04/22 02:00:14;;;;;;;6.80;6.20;;;17.40;67.00;;;;;;4180264;28;19927;-61
2023/04/22 02:02:59;;;;;;;8.85;5.90;;;17.40;67.20;;;;;;4191929;28;20179;-61
2023/04/22 02:05:40;;;;;;;6.35;5.63;;;17.40;67.40;;;;;;4193070;28;20142;-60
2023/04/22 02:08:21;;;;;;;6.63;6.00;;;17.30;67.40;;;;;;4191996;28;20433;-60
2023/04/22 02:11:02;;;;;;;6.68;5.85;;;17.40;68.40;;;;;;4191298;28;20102;-60
2023/04/22 02:13:44;;;;;;;7.10;6.40;;;17.30;67.50;;;;;;4192551;28;20046;-60
2023/04/22 02:16:25;;;;;;;6.80;5.60;;;17.40;67.40;;;;;;4192590;28;20073;-60
2023/04/22 02:19:06;;;;;;;6.35;5.85;;;17.30;67.20;;;;;;4192338;28;20059;-59
2023/04/22 02:21:47;;;;;;;8.10;6.15;;;17.30;67.10;;;;;;4192656;28;20495;-60
2023/04/22 02:24:28;;;;;;;6.38;5.80;;;17.30;67.00;;;;;;4181183;28;20075;-60
2023/04/22 02:27:11;;;;;;;5.80;5.30;;;17.30;67.20;;;;;;4191839;28;20081;-60
2023/04/22 02:29:53;;;;;;;6.50;6.00;;;17.30;67.40;;;;;;4191921;28;20051;-60
2023/04/22 02:32:35;;;;;;;6.13;5.63;;;17.30;67.50;;;;;;4191686;28;20055;-60
2023/04/22 02:35:16;;;;;;;7.13;6.00;;;17.30;67.60;;;;;;4192562;28;20507;-60
2023/04/22 02:37:57;;;;;;;6.07;5.50;;;17.30;68.00;;;;;;4176077;28;20076;-60
2023/04/22 02:40:39;;;;;;;7.25;5.88;;;17.20;67.70;;;;;;4175215;28;20118;-60
2023/04/22 02:43:20;;;;;;;6.40;5.80;;;17.20;67.50;;;;;;4175079;28;20059;-60
2023/04/22 02:46:02;;;;;;;6.00;5.60;;;17.20;67.50;;;;;;4175375;28;20051;-60
2023/04/22 02:48:43;;;;;;;6.93;6.32;;;17.20;67.50;;;;;;4192492;28;20070;-60
2023/04/22 02:51:23;;;;;;;7.82;7.10;;;17.20;67.40;;;;;;4191101;28;20055;-60
2023/04/22 02:54:04;;;;;;;8.87;7.80;;;17.20;67.20;;;;;;4190869;28;20055;-60
2023/04/22 02:56:46;;;;;;;8.10;7.38;;;17.20;67.10;;;;;;4191251;28;20123;-60
2023/04/22 02:59:27;;;;;;;9.07;8.27;;;17.20;67.90;;;;;;4190713;28;20091;-60
2023/04/22 03:02:10;;;;;;;8.70;7.97;;;17.20;66.80;;;;;;4192291;28;20056;-60
2023/04/22 03:05:11;;;;;;;7.50;6.80;;;17.20;67.60;;;;;;4190992;28;20050;-60
2023/04/22 03:07:53;;;;;;;8.60;7.70;;;17.20;66.90;;;;;;4191899;28;20059;-60
2023/04/22 03:10:35;;;;;;;8.25;7.40;;;17.20;66.90;;;;;;4182294;28;20043;-60
2023/04/22 03:13:16;;;;;;;10.77;8.40;;;17.10;67.00;;;;;;4194366;28;20058;-60
2023/04/22 03:15:57;;;;;;;;;;;17.10;67.30;;;;;;4195194;28;20050;-59
2023/04/22 03:18:40;;;;;;;10.93;7.55;;;17.10;67.40;;;;;;4194498;28;19927;-60
2023/04/22 03:21:22;;;;;;;9.05;7.70;;;17.10;67.90;;;;;;4194518;28;20094;-60
2023/04/22 03:24:03;;;;;;;9.45;7.90;;;17.10;67.90;;;;;;4194482;28;20102;-60
2023/04/22 03:26:46;;;;;;;8.27;7.30;;;17.10;67.90;;;;;;4193763;28;20182;-61
2023/04/22 03:29:26;;;;;;;8.18;7.38;;;17.10;67.90;;;;;;4194236;28;20051;-61
2023/04/22 03:32:07;;;;;;;8.27;7.50;;;17.10;67.90;;;;;;4193167;28;20091;-60
2023/04/22 03:34:51;;;;;;;9.73;7.60;;;17.10;67.90;;;;;;4193348;28;20062;-60
2023/04/22 03:37:32;;;;;;;8.32;7.63;;;17.10;67.90;;;;;;4193622;28;20056;-59
2023/04/22 03:40:14;;;;;;;10.25;7.68;;;17.10;67.90;;;;;;4192990;28;20175;-60
2023/04/22 03:42:55;;;;;;;;;;;17.10;67.80;;;;;;4182516;28;20188;-60
2023/04/22 03:45:36;;;;;;;9.20;8.30;;;17.00;67.70;;;;;;4193926;28;20271;-60
2023/04/22 03:48:38;;;;;;;9.35;8.45;;;17.00;68.40;;;;;;4189483;28;20510;-60
2023/04/22 03:51:25;;;;;;;9.05;8.13;;;17.00;68.70;;;;;;4194166;28;20494;-61
2023/04/22 03:54:07;;;;;;;9.75;8.55;;;17.00;68.10;;;;;;4188424;28;20055;-60
2023/04/22 03:56:52;;;;;;;12.40;8.85;;;17.00;67.90;;;;;;4177535;28;20565;-60
2023/04/22 03:59:35;;;;;;;8.57;7.70;;;17.00;68.10;;;;;;4193778;28;20064;-60
2023/04/22 04:02:16;;;;;;;9.00;8.20;;;17.00;68.10;;;;;;4194077;28;20052;-61
2023/04/22 04:04:58;;;;;;;9.15;8.35;;;17.00;68.10;;;;;;4193588;28;20345;-61
2023/04/22 04:07:41;;;;;;;12.40;8.63;;;17.00;68.00;;;;;;4193570;28;20517;-61
2023/04/22 04:10:22;;;;;;;8.90;8.20;;;17.00;68.00;;;;;;4193785;28;20103;-60
2023/04/22 04:13:05;;;;;;;9.30;8.40;;;17.00;68.10;;;;;;4193247;28;20508;-60
2023/04/22 04:15:57;;;;;;;;;;;16.90;68.00;;;;;;4193388;28;20060;-61
2023/04/22 04:18:39;;;;;;;9.15;8.27;;;16.90;68.10;;;;;;4176704;28;19928;-60
2023/04/22 04:21:20;;;;;;;10.07;8.75;;;16.90;68.80;;;;;;4177046;28;20051;-60
2023/04/22 04:24:06;;;;;;;9.27;8.45;;;16.90;68.60;;;;;;4176774;28;20118;-60
2023/04/22 04:26:53;;;;;;;9.07;8.27;;;16.90;68.40;;;;;;4180207;28;20055;-60
2023/04/22 04:29:41;;;;;;;9.43;8.63;;;16.90;68.40;;;;;;4181887;28;20191;-60
2023/04/22 04:32:27;;;;;;;11.10;9.00;;;16.90;68.40;;;;;;4194736;28;20055;-60
2023/04/22 04:35:11;;;;;;;9.48;8.27;;;16.90;68.50;;;;;;4193078;28;20055;-60
2023/04/22 04:37:54;;;;;;;8.90;8.13;;;16.90;68.40;;;;;;4193183;28;20067;-60
2023/04/22 04:40:37;;;;;;;9.02;8.25;;;16.80;68.30;;;;;;4193446;28;20047;-60
2023/04/22 04:43:24;;;;;;;10.43;8.30;;;16.90;68.30;;;;;;4192943;28;20055;-60
2023/04/22 04:46:12;;;;;;;8.40;7.70;;;16.90;68.40;;;;;;4192958;28;20505;-60
2023/04/22 04:48:53;;;;;;;10.18;8.23;;;16.90;68.40;;;;;;4176523;28;20063;-60
2023/04/22 04:51:34;;;;;;;;;;;16.80;68.20;;;;;;4192620;28;20178;-60
2023/04/22 04:54:15;;;;;;;10.00;8.27;;;16.80;68.30;;;;;;4187815;28;19962;-60
2023/04/22 04:56:58;;;;;;;8.43;7.63;;;16.80;69.00;;;;;;4176605;28;20071;-61
2023/04/22 04:59:39;;;;;;;9.68;8.75;;;16.80;68.50;;;;;;4184002;28;20122;-60
2023/04/22 05:02:20;;;;;;;10.05;9.05;;;16.80;68.30;;;;;;4192936;28;20133;-60
2023/04/22 05:05:01;;;;;;;11.23;8.48;;;16.80;68.10;;;;;;4192678;28;20051;-60
2023/04/22 05:07:42;;;;;;;9.38;8.48;;;16.80;68.10;;;;;;4192699;28;20390;-59
2023/04/22 05:10:26;;;;;;;10.30;8.13;;;16.80;68.20;;;;;;4192623;28;20122;-60
2023/04/22 05:13:10;;;;;;;10.40;8.07;;;16.80;68.20;;;;;;4176291;28;20052;-60
2023/04/22 05:15:54;;;;;;;11.00;9.35;;;16.80;68.10;;;;;;4176417;28;20570;-60
2023/04/22 05:18:36;;;;;;;11.48;8.95;;;16.80;68.20;;;;;;4176402;28;20175;-60
2023/04/22 05:21:21;;;;;;;10.30;8.25;;;16.80;68.00;;;;;;4176476;28;20056;-60
2023/04/22 05:24:02;;;;;;;10.18;9.15;;;16.80;69.00;;;;;;4189661;28;20048;-60
2023/04/22 05:26:43;;;;;;;10.35;8.73;;;16.80;68.00;;;;;;4192309;28;20063;-61
2023/04/22 05:29:30;;;;;;;10.27;9.18;;;16.80;67.90;;;;;;4181022;28;20055;-60
2023/04/22 05:32:13;;;;;;;11.45;8.63;;;16.80;67.20;;;;;;4192475;28;20059;-60
2023/04/22 05:34:54;;;;;;;;;;;16.80;67.00;;;;;;4181156;28;20486;-60
2023/04/22 05:37:35;;;;;;;10.05;8.45;;;16.80;67.00;;;;;;4180273;28;19930;-60
2023/04/22 05:40:16;;;;;;;11.05;9.45;;;16.80;68.00;;;;;;4192014;28;20106;-60
2023/04/22 05:42:57;;;;;;;10.27;9.20;;;16.70;67.80;;;;;;4192081;28;20047;-60
2023/04/22 05:45:40;;;;;;;10.77;8.68;;;16.70;67.50;;;;;;4192305;28;20286;-60
2023/04/22 05:48:24;;;;;;;10.18;8.90;;;16.70;67.40;;;;;;4186690;28;20067;-60
2023/04/22 05:51:12;;;;;;;10.23;9.18;;;16.70;67.80;;;;;;4175976;28;20400;-60
2023/04/22 05:53:52;;;;;;;12.87;9.63;;;16.70;68.30;;;;;;4179978;28;20063;-60
2023/04/22 05:56:33;;;;;;;11.02;9.32;;;16.70;68.20;;;;;;4192264;28;20060;-60
2023/04/22 05:59:14;;;;;;;10.80;9.57;;;16.70;68.20;;;;;;4192299;28;20482;-60
2023/04/22 06:01:57;;;;;;;11.00;9.93;;;16.70;68.50;;;;;;4180123;28;20067;-60
2023/04/22 06:04:38;;;;;;;11.35;10.05;;;16.70;68.40;;;;;;4191915;28;20071;-60
2023/04/22 06:07:19;;;;;;;12.05;9.82;;;16.70;69.20;;;;;;4193276;28;20105;-60
2023/04/22 06:10:00;;;;;;;10.40;9.50;;;16.70;68.20;;;;;;4193166;28;20051;-60
2023/04/22 06:12:44;;;;;;;10.93;9.82;;;16.70;68.20;;;;;;4186505;28;20403;-60
2023/04/22 06:15:26;;;;;;;11.50;10.07;;;16.70;68.20;;;;;;4190949;28;20055;-60
2023/04/22 06:18:08;;;;;;;;;;;16.70;68.40;;;;;;4190998;28;20183;-60
2023/04/22 06:20:51;;;;;;;10.48;9.32;;;16.60;68.90;;;;;;4179748;28;19959;-60
2023/04/22 06:23:31;;;;;;;10.48;9.48;;;16.60;69.50;;;;;;4191153;28;20506;-59
2023/04/22 06:26:12;;;;;;;10.27;9.02;;;16.60;69.50;;;;;;4191919;28;20048;-60
2023/04/22 06:28:53;;;;;;;14.43;9.57;;;16.60;69.50;;;;;;4191556;28;20046;-60
2023/04/22 06:31:34;;;;;;;12.15;9.88;;;16.60;69.50;;;;;;4192209;28;20348;-59
2023/04/22 06:34:16;;;;;;;11.90;9.68;;;16.60;69.60;;;;;;4190907;28;20190;-60
2023/04/22 06:36:57;;;;;;;10.07;9.15;;;16.60;69.70;;;;;;4190542;28;20056;-60
2023/04/22 06:39:38;;;;;;;12.97;9.73;;;16.60;69.80;;;;;;4183055;28;20051;-60
2023/04/22 06:42:37;;;;;;;11.15;9.75;;;16.60;69.90;;;;;;4192149;28;20110;-60
2023/04/22 06:45:31;;;;;;;14.40;9.48;;;16.60;70.20;;;;;;4174865;28;21047;-60
2023/04/22 06:48:30;;;;;;;10.45;9.45;;;16.70;70.40;;;;;;4189358;28;20059;-60
2023/04/22 06:51:31;;;;;;;21.50;9.93;;;16.70;70.70;;;;;;4192248;28;20055;-60
2023/04/22 06:54:13;;;;;;;10.73;9.43;;;16.70;70.70;;;;;;4191083;28;20063;-60
2023/04/22 06:56:55;;;;;;;10.45;9.23;;;16.70;70.60;;;;;;4174930;28;20048;-60
2023/04/22 06:59:36;;;;;;;10.35;9.35;;;16.70;70.60;;;;;;4179945;28;20051;-60
2023/04/22 07:02:18;;;;;;;13.38;9.85;;;16.60;70.70;;;;;;4190804;28;20174;-60
2023/04/22 07:04:59;;;;;;;10.18;9.27;;;16.70;70.80;;;;;;4184733;28;20117;-60
2023/04/22 07:07:41;;;;;;;10.57;9.48;;;16.70;70.80;;;;;;4192140;28;20483;-60
2023/04/22 07:10:28;;;;;;;10.50;9.40;;;16.70;70.70;;;;;;4190837;28;20051;-60
2023/04/22 07:13:32;;;;;;;9.63;8.63;;;16.70;71.50;;;;;;4191527;28;20510;-60
2023/04/22 07:16:13;;;;;;;11.23;9.88;;;16.70;70.90;;;;;;4191736;28;20147;-60
2023/04/22 07:18:54;;;;;;;11.80;9.65;;;16.70;71.90;;;;;;4187678;28;20055;-60
2023/04/22 07:21:35;;;;;;;12.23;9.88;;;16.70;71.20;;;;;;4190773;28;20494;-59
2023/04/22 07:24:17;;;;;;;12.30;9.50;;;16.70;71.10;;;;;;4191531;28;20068;-60
2023/04/22 07:26:58;;;;;;;12.45;9.77;;;16.70;71.10;;;;;;4191337;28;20736;-60
2023/04/22 07:29:39;;;;;;;10.63;9.63;;;16.70;71.10;;;;;;4192047;28;20179;-62
2023/04/22 07:32:20;;;;;;;13.35;10.13;;;16.70;71.00;;;;;;4175619;28;20094;-62
2023/04/22 07:35:01;;;;;;;11.20;9.48;;;16.70;71.20;;;;;;4189861;28;20058;-62
2023/04/22 07:37:41;;;;;;;11.40;10.32;;;16.70;71.30;;;;;;4191637;28;20118;-62
2023/04/22 07:40:24;;;;;;;11.07;9.95;;;16.70;71.30;;;;;;4191779;28;20056;-62
2023/04/22 07:43:05;;;;;;;15.55;10.43;;;16.80;71.50;;;;;;4191344;28;20056;-63
2023/04/22 07:45:46;;;;;;;9.68;8.70;;;16.80;71.40;;;;;;4191704;28;20052;-62
2023/04/22 07:48:27;;;;;;;12.23;9.15;;;16.80;71.50;;;;;;4190347;28;20056;-62
2023/04/22 07:51:08;;;;;;;11.55;9.70;;;16.80;71.70;;;;;;4191772;28;20044;-62
2023/04/22 07:53:49;;;;;;;10.95;9.23;;;16.80;71.60;;;;;;4192060;28;20052;-63
2023/04/22 07:56:31;;;;;;;9.90;8.85;;;16.80;71.60;;;;;;4194520;28;20077;-63
2023/04/22 07:59:12;;;;;;;10.30;9.20;;;16.80;71.60;;;;;;4193990;28;20089;-62
2023/04/22 08:01:53;;;;;;;9.55;8.63;;;16.90;71.70;;;;;;4194759;28;20051;-62
2023/04/22 08:04:34;;;;;;;9.43;8.48;;;16.80;72.50;;;;;;4178345;28;20891;-62
2023/04/22 08:07:15;;;;;;;9.40;8.40;;;16.80;71.60;;;;;;4183531;28;20485;-62
2023/04/22 08:10:12;;;;;;;10.43;8.60;;;16.90;71.90;;;;;;4194405;28;20518;-62
2023/04/22 08:12:54;;;;;;;10.27;9.23;;;16.90;71.70;;;;;;4194844;28;20550;-62
2023/04/22 08:15:35;;;;;;;11.05;9.10;;;17.00;71.80;;;;;;4182978;28;20074;-62
2023/04/22 08:18:15;;;;;;;9.77;8.18;;;17.00;71.70;;;;;;4194494;28;20723;-63
2023/04/22 08:20:56;;;;;;;9.50;8.50;;;17.00;71.70;;;;;;4194457;28;20498;-62
2023/04/22 08:23:37;;;;;;;9.65;8.68;;;17.10;71.80;;;;;;4194144;28;20477;-62
2023/04/22 08:26:19;;;;;;;9.80;8.90;;;17.10;71.90;;;;;;4194082;28;20179;-63
2023/04/22 08:29:01;;;;;;;8.90;8.00;;;17.20;71.80;;;;;;4193308;28;20047;-63
2023/04/22 08:31:42;;;;;;;9.90;8.90;;;17.20;71.90;;;;;;4188608;28;20407;-63
2023/04/22 08:34:23;;;;;;;10.85;9.82;;;17.20;71.60;;;;;;4194471;28;20845;-63
2023/04/22 08:37:05;;;;;;;14.90;9.68;;;17.30;71.50;;;;;;4181636;28;20086;-63
2023/04/22 08:39:46;;;;;;;8.77;7.88;;;17.40;71.50;;;;;;4194402;28;20063;-62
2023/04/22 08:42:27;;;;;;;9.13;8.27;;;17.40;71.30;;;;;;4194159;28;20060;-62
2023/04/22 08:45:10;;;;;;;9.63;8.57;;;17.50;71.30;;;;;;4182750;28;20122;-62
2023/04/22 08:47:52;;;;;;;9.30;8.02;;;17.50;71.10;;;;;;4180523;28;20071;-62
2023/04/22 08:50:34;;;;;;;9.25;7.97;;;17.60;70.90;;;;;;4192207;28;20047;-62
2023/04/22 08:53:14;;;;;;;;;;;17.60;70.80;;;;;;4194205;28;20474;-62
2023/04/22 08:55:56;;;;;;;10.82;8.55;;;17.70;70.70;;;;;;4177839;28;20379;-62
2023/04/22 08:58:37;;;;;;;;;;;17.70;70.60;;;;;;4183836;28;20209;-63
2023/04/22 09:01:20;;;;;;;9.52;8.32;;;17.80;70.60;;;;;;4184941;28;19931;-62
2023/04/22 09:04:01;;;;;;;8.88;8.07;;;17.80;71.50;;;;;;4193864;28;20083;-62
2023/04/22 09:06:42;;;;;;;8.63;7.90;;;17.80;70.60;;;;;;4180811;28;20055;-62
2023/04/22 09:09:23;;;;;;;9.85;8.00;;;17.80;70.60;;;;;;4192813;28;20406;-62
2023/04/22 09:12:05;;;;;;;;;;;17.90;70.50;;;;;;4193866;28;20052;-62
2023/04/22 09:14:46;;;;;;;7.85;7.10;;;17.90;70.30;;;;;;4193351;28;19931;-62
2023/04/22 09:17:33;;;;;;;7.82;7.05;;;17.90;70.30;;;;;;4192772;28;20060;-62
2023/04/22 09:20:16;;;;;;;7.60;6.90;;;18.00;70.30;;;;;;4193199;28;20137;-63
2023/04/22 09:23:01;;;;;;;8.07;7.18;;;18.00;70.20;;;;;;4192145;28;20051;-61
2023/04/22 09:25:45;;;;;;;8.13;7.35;;;18.10;70.00;;;;;;4193449;28;20487;-61
2023/04/22 09:28:25;;;;;;;9.98;7.45;;;18.10;70.00;;;;;;4192808;28;20051;-61
2023/04/22 09:31:06;;;;;;;8.48;7.68;;;18.20;70.00;;;;;;4185426;28;20185;-62
2023/04/22 09:33:50;;;;;;;8.27;7.13;;;18.20;69.90;;;;;;4177308;28;20044;-62
2023/04/22 09:36:36;;;;;;;9.02;8.13;;;18.20;69.70;;;;;;4191862;28;20419;-62
2023/04/22 09:39:17;;;;;;;8.40;7.32;;;18.30;69.60;;;;;;4192017;28;20052;-61
2023/04/22 09:41:58;;;;;;;8.25;7.55;;;18.30;69.50;;;;;;4192907;28;20502;-62
2023/04/22 09:44:39;;;;;;;8.35;7.60;;;18.40;69.50;;;;;;4193588;28;20052;-61
2023/04/22 09:47:22;;;;;;;;;;;18.40;69.30;;;;;;4193807;28;20068;-61
2023/04/22 09:50:06;;;;;;;10.48;9.23;;;18.40;69.20;;;;;;4193139;28;19930;-61
2023/04/22 09:52:54;;;;;;;8.48;7.60;;;18.50;69.20;;;;;;4192374;28;20059;-61
2023/04/22 09:55:38;;;;;;;8.75;7.47;;;18.50;68.80;;;;;;4192029;28;20195;-62
2023/04/22 09:58:22;;;;;;;7.97;7.18;;;18.50;68.60;;;;;;4192966;28;20043;-61
2023/04/22 10:01:03;;;;;;;8.85;6.82;;;18.60;68.40;;;;;;4192893;28;20052;-61
2023/04/22 10:03:44;;;;;;;7.85;6.95;;;18.60;68.40;;;;;;4193237;28;20064;-61
2023/04/22 10:06:27;;;;;;;9.95;7.45;;;18.60;68.30;;;;;;4188132;28;20056;-61
2023/04/22 10:09:08;;;;;;;7.88;6.85;;;18.60;68.20;;;;;;4192480;28;20064;-61
2023/04/22 10:11:51;;;;;;;10.10;6.93;;;18.60;68.10;;;;;;4192721;28;20055;-61
2023/04/22 10:14:32;;;;;;;6.68;6.07;;;18.70;68.00;;;;;;4193132;28;20181;-61
2023/04/22 10:17:13;;;;;;;;;;;18.70;67.60;;;;;;4192506;28;20043;-61
2023/04/22 10:19:55;;;;;;;7.80;6.30;;;18.80;67.60;;;;;;4192166;28;19927;-62
2023/04/22 10:22:38;;;;;;;6.18;5.68;;;18.80;67.50;;;;;;4176197;28;20511;-61
2023/04/22 10:25:22;;;;;;;7.03;6.32;;;18.80;67.10;;;;;;4189038;28;20055;-61
2023/04/22 10:28:05;;;;;;;7.28;6.68;;;18.80;66.90;;;;;;4176224;28;20598;-61
2023/04/22 10:30:46;;;;;;;6.38;5.88;;;18.90;66.50;;;;;;4175973;28;20102;-61
2023/04/22 10:33:37;;;;;;;6.75;6.13;;;18.90;66.40;;;;;;4176455;28;20160;-61
2023/04/22 10:36:20;;;;;;;7.22;6.63;;;18.90;66.20;;;;;;4175390;28;20060;-61
2023/04/22 10:39:17;;;;;;;6.80;6.30;;;19.00;66.40;;;;;;4176113;28;20056;-60
2023/04/22 10:42:08;;;;;;;7.85;7.22;;;19.00;67.30;;;;;;4175455;28;20106;-60
2023/04/22 10:44:50;;;;;;;;;;;19.00;66.20;;;;;;4176323;28;20059;-61
2023/04/22 10:47:33;;;;;;;7.05;5.90;;;19.10;66.20;;;;;;4176059;28;20005;-61
2023/04/22 10:50:20;;;;;;;6.60;6.00;;;19.10;66.10;;;;;;4186528;28;20499;-61
2023/04/22 10:53:37;;;;;;;5.78;5.28;;;19.10;65.90;;;;;;4176030;28;20056;-61
2023/04/22 10:56:19;;;;;;;5.68;5.18;;;19.10;65.70;;;;;;4181034;28;20620;-62
2023/04/22 10:59:00;;;;;;;6.75;4.68;;;19.20;65.70;;;;;;4192631;28;20067;-62
2023/04/22 11:01:41;;;;;;;4.72;4.43;;;19.20;65.60;;;;;;4192369;28;20055;-62
2023/04/22 11:04:23;;;;;;;5.80;5.25;;;19.20;65.50;;;;;;4192307;28;20183;-61
2023/04/22 11:07:13;;;;;;;;;;;19.20;65.40;;;;;;4191088;28;20407;-61
2023/04/22 11:10:02;;;;;;;5.53;5.03;;;19.20;66.40;;;;;;4176003;28;20283;-61
2023/04/22 11:12:45;;;;;;;6.38;5.85;;;19.30;65.40;;;;;;4175419;28;20510;-61
2023/04/22 11:15:26;;;;;;;6.05;5.45;;;19.30;65.10;;;;;;4174659;28;20055;-61
2023/04/22 11:18:08;;;;;;;;;;;19.30;65.10;;;;;;4176267;28;20060;-62
2023/04/22 11:20:51;;;;;;;5.95;5.38;;;19.30;65.20;;;;;;4180076;28;19973;-61
2023/04/22 11:23:32;;;;;;;6.28;5.78;;;19.30;66.10;;;;;;4191809;28;20778;-61
2023/04/22 11:26:13;;;;;;;5.55;5.13;;;19.40;65.30;;;;;;4191186;28;20051;-62
2023/04/22 11:29:00;;;;;;;5.07;4.68;;;19.40;65.30;;;;;;4193263;28;20106;-62
2023/04/22 11:31:46;;;;;;;4.43;4.13;;;19.40;65.10;;;;;;4178840;28;20059;-60
2023/04/22 11:34:29;;;;;;;5.47;4.97;;;19.40;65.00;;;;;;4179820;28;20101;-61
2023/04/22 11:37:11;;;;;;;5.40;5.00;;;19.50;65.00;;;;;;4178658;28;20059;-61
2023/04/22 11:39:52;;;;;;;5.07;4.70;;;19.50;65.10;;;;;;4177585;28;20060;-61
2023/04/22 11:42:53;;;;;;;5.72;5.10;;;19.50;65.00;;;;;;4178636;28;20051;-61
2023/04/22 11:45:37;;;;;;;4.88;4.43;;;19.50;64.80;;;;;;4178866;28;20052;-61
2023/04/22 11:48:18;;;;;;;4.95;4.50;;;19.50;64.70;;;;;;4178816;28;20060;-61
2023/04/22 11:51:17;;;;;;;6.50;4.20;;;19.60;65.60;;;;;;4183096;28;20067;-60
2023/04/22 11:53:59;;;;;;;3.65;3.35;;;19.60;64.30;;;;;;4194704;28;20525;-60
2023/04/22 11:56:40;;;;;;;3.85;3.55;;;19.60;64.60;;;;;;4195065;28;20126;-61
2023/04/22 11:59:23;;;;;;;4.50;4.18;;;19.60;64.00;;;;;;4194683;28;20055;-61
2023/04/22 12:02:09;;;;;;;4.30;3.97;;;19.60;64.10;;;;;;4194615;28;20051;-61
2023/04/22 12:04:50;;;;;;;4.63;3.85;;;19.70;64.00;;;;;;4179473;28;20052;-61
2023/04/22 12:07:32;;;;;;;5.15;4.47;;;19.70;64.30;;;;;;4194346;28;20056;-60
2023/04/22 12:10:13;;;;;;;5.30;4.80;;;19.80;64.10;;;;;;4195141;28;20056;-60
2023/04/22 12:12:54;;;;;;;5.65;5.20;;;19.80;63.40;;;;;;4194654;28;20106;-60
2023/04/22 12:15:43;;;;;;;6.90;4.45;;;19.80;63.20;;;;;;4194336;28;20178;-61
2023/04/22 12:18:33;;;;;;;5.15;4.65;;;19.90;63.20;;;;;;4194540;28;20059;-61
2023/04/22 12:21:16;;;;;;;5.78;5.28;;;19.90;62.40;;;;;;4194648;28;20145;-61
2023/04/22 12:23:59;;;;;;;6.18;5.57;;;20.00;62.40;;;;;;4194357;28;20105;-61
2023/04/22 12:26:41;;;;;;;6.78;5.15;;;20.00;62.40;;;;;;4193665;28;20052;-60
2023/04/22 12:29:27;;;;;;;6.05;5.55;;;20.00;62.20;;;;;;4194050;28;20557;-60
2023/04/22 12:32:08;;;;;;;5.47;4.53;;;20.00;62.30;;;;;;4194671;28;20046;-61
2023/04/22 12:34:50;;;;;;;5.72;5.22;;;20.10;62.70;;;;;;4194929;28;20448;-61
2023/04/22 12:37:31;;;;;;;6.05;5.45;;;20.10;62.70;;;;;;4194651;28;20059;-61
2023/04/22 12:40:12;;;;;;;5.53;5.03;;;20.10;62.80;;;;;;4192828;28;20051;-61
2023/04/22 12:42:53;;;;;;;6.63;5.97;;;20.10;62.80;;;;;;4194333;28;20109;-61
2023/04/22 12:45:34;;;;;;;5.78;5.28;;;20.20;62.80;;;;;;4177481;28;20051;-61
2023/04/22 12:48:16;;;;;;;6.80;6.22;;;20.20;62.80;;;;;;4177388;28;20622;-61
2023/04/22 12:50:58;;;;;;;5.65;5.03;;;20.20;62.80;;;;;;4176211;28;20056;-61
2023/04/22 12:53:39;;;;;;;6.03;5.43;;;20.20;62.80;;;;;;4193330;28;20517;-61
2023/04/22 12:56:19;;;;;;;7.78;5.78;;;20.20;62.80;;;;;;4177548;28;20563;-61
2023/04/22 12:59:02;;;;;;;6.60;5.90;;;20.30;62.80;;;;;;4176795;28;20052;-61
2023/04/22 13:01:43;;;;;;;7.38;6.70;;;20.30;62.80;;;;;;4177539;28;20056;-60
2023/04/22 13:04:23;;;;;;;7.95;7.25;;;20.40;62.70;;;;;;4177592;28;20056;-61
2023/04/22 13:07:06;;;;;;;6.95;6.28;;;20.40;62.50;;;;;;4176288;28;20408;-60
2023/04/22 13:09:47;;;;;;;7.32;6.38;;;20.40;62.50;;;;;;4192223;28;20063;-61
2023/04/22 13:12:28;;;;;;;8.00;6.40;;;20.50;62.70;;;;;;4193922;28;20059;-61
2023/04/22 13:15:10;;;;;;;7.05;6.47;;;20.50;62.70;;;;;;4193948;28;20158;-60
2023/04/22 13:17:51;;;;;;;7.20;6.50;;;20.50;62.60;;;;;;4193047;28;20094;-61
2023/04/22 13:20:32;;;;;;;7.80;7.10;;;20.60;62.60;;;;;;4193645;28;20170;-61
2023/04/22 13:23:15;;;;;;;7.05;6.35;;;20.60;62.50;;;;;;4193307;28;20059;-61
2023/04/22 13:25:57;;;;;;;6.43;5.93;;;20.60;62.30;;;;;;4193334;28;20060;-61
2023/04/22 13:28:38;;;;;;;8.68;7.25;;;20.60;62.40;;;;;;4192521;28;20058;-61
2023/04/22 13:31:19;;;;;;;9.18;7.18;;;20.60;62.20;;;;;;4192728;28;20054;-61
2023/04/22 13:34:00;;;;;;;6.65;6.05;;;20.70;62.10;;;;;;4192627;28;20089;-61
2023/04/22 13:36:41;;;;;;;8.90;6.28;;;20.70;61.90;;;;;;4193681;28;20406;-61
2023/04/22 13:39:23;;;;;;;7.20;6.70;;;20.60;62.00;;;;;;4193720;28;20101;-61
2023/04/22 13:42:04;;;;;;;6.80;6.13;;;20.70;62.10;;;;;;4192841;28;20178;-61
2023/04/22 13:44:45;;;;;;;7.40;6.80;;;20.70;62.20;;;;;;4193105;28;20063;-61
2023/04/22 13:47:25;;;;;;;6.65;6.13;;;20.70;62.30;;;;;;4192754;28;20052;-61
2023/04/22 13:50:07;;;;;;;10.93;6.78;;;20.70;62.40;;;;;;4183355;28;20569;-61
2023/04/22 13:52:48;;;;;;;8.10;7.30;;;20.70;62.30;;;;;;4191896;28;20062;-61
2023/04/22 13:55:30;;;;;;;8.02;7.22;;;20.70;62.20;;;;;;4193214;28;20391;-61
2023/04/22 13:58:11;;;;;;;7.90;7.20;;;20.70;62.20;;;;;;4192960;28;20058;-61
2023/04/22 14:00:52;;;;;;;7.50;6.70;;;20.70;62.20;;;;;;4193132;28;20071;-60
2023/04/22 14:03:33;;;;;;;6.75;6.15;;;20.70;62.40;;;;;;4189522;28;20113;-60
2023/04/22 14:06:14;;;;;;;;;;;20.70;63.30;;;;;;4193603;28;20141;-60
2023/04/22 14:08:56;;;;;;;7.82;6.53;;;20.70;62.40;;;;;;4192995;28;20456;-60